Time,TemperatureF,DewpointF,PressureIn,WindDirection,WindDirectionDegrees,WindSpeedMPH,WindSpeedGustMPH,Humidity,HourlyPrecipIn,Conditions,Clouds,dailyrainin,SoftwareType,DateUTC
2013-12-09 00:01:00,16.2,10.5,29.91,North,-999,0.0,0.0,78,0.00,,,0.00,pywws,2013-12-09 06:01:00,
2013-12-09 00:11:00,16.2,10.5,29.91,North,-999,0.0,0.0,78,0.00,,,0.00,pywws,2013-12-09 06:11:00,
2013-12-09 00:21:00,16.0,10.4,29.91,North,-999,0.0,0.0,78,0.00,,,0.00,pywws,2013-12-09 06:21:00,
2013-12-09 00:31:00,15.8,10.2,29.91,North,-999,0.0,0.0,78,0.00,,,0.00,pywws,2013-12-09 06:31:00,
2013-12-09 00:41:00,15.6,10.3,29.90,North,-999,0.0,0.0,79,0.00,,,0.00,pywws,2013-12-09 06:41:00,
2013-12-09 00:51:00,15.6,10.3,29.91,North,-999,0.0,0.0,79,0.00,,,0.00,pywws,2013-12-09 06:51:00,
2013-12-09 01:01:00,15.6,10.3,29.91,North,-999,0.0,0.0,79,0.00,,,0.00,pywws,2013-12-09 07:01:00,
2013-12-09 01:11:00,15.6,10.3,29.91,North,-999,0.0,0.0,79,0.00,,,0.00,pywws,2013-12-09 07:11:00,
2013-12-09 01:21:00,15.4,10.1,29.90,North,-999,0.0,0.0,79,0.00,,,0.00,pywws,2013-12-09 07:21:00,
2013-12-09 01:31:00,15.3,9.9,29.91,North,-999,0.0,0.0,79,0.00,,,0.00,pywws,2013-12-09 07:31:00,
2013-12-09 01:41:00,15.1,9.8,29.91,North,-999,0.0,0.0,79,0.00,,,0.00,pywws,2013-12-09 07:41:00,
2013-12-09 01:51:00,15.3,9.9,29.92,North,-999,0.0,0.0,79,0.00,,,0.00,pywws,2013-12-09 07:51:00,
2013-12-09 02:01:00,15.4,10.1,29.93,North,-999,0.0,0.0,79,0.00,,,0.00,pywws,2013-12-09 08:01:00,
2013-12-09 02:11:00,15.4,9.8,29.93,North,-999,0.0,0.0,78,0.00,,,0.00,pywws,2013-12-09 08:11:00,
2013-12-09 02:21:00,14.7,8.8,29.93,North,-999,0.0,0.0,77,0.00,,,0.00,pywws,2013-12-09 08:21:00,
2013-12-09 02:31:00,13.8,7.7,29.93,North,-999,0.0,0.0,76,0.00,,,0.00,pywws,2013-12-09 08:31:00,
2013-12-09 02:41:00,12.7,6.6,29.94,North,-999,0.0,0.0,76,0.00,,,0.00,pywws,2013-12-09 08:41:00,
2013-12-09 02:51:00,11.8,5.8,29.95,North,-999,0.0,0.0,76,0.00,,,0.00,pywws,2013-12-09 08:51:00,
2013-12-09 03:01:00,10.9,4.9,29.94,North,-999,0.0,0.0,76,0.00,,,0.00,pywws,2013-12-09 09:01:00,
2013-12-09 03:11:00,10.4,4.4,29.95,North,-999,0.0,0.0,76,0.00,,,0.00,pywws,2013-12-09 09:11:00,
2013-12-09 03:21:00,9.7,2.2,29.95,North,-999,0.0,0.0,71,0.00,,,0.00,pywws,2013-12-09 09:21:00,
2013-12-09 03:31:00,9.1,1.7,29.95,North,-999,0.0,0.0,71,0.00,,,0.00,pywws,2013-12-09 09:31:00,
2013-12-09 03:41:00,8.8,1.3,29.96,North,-999,0.0,0.0,71,0.00,,,0.00,pywws,2013-12-09 09:41:00,
2013-12-09 03:51:00,8.4,1.3,29.95,North,-999,0.0,0.0,72,0.00,,,0.00,pywws,2013-12-09 09:51:00,
2013-12-09 04:01:00,8.1,0.9,29.96,North,-999,0.0,0.0,72,0.00,,,0.00,pywws,2013-12-09 10:01:00,
2013-12-09 04:11:00,7.7,0.6,29.96,North,-999,0.0,0.0,72,0.00,,,0.00,pywws,2013-12-09 10:11:00,
2013-12-09 04:21:00,7.0,-0.4,29.96,North,-999,0.0,0.0,71,0.00,,,0.00,pywws,2013-12-09 10:21:00,
2013-12-09 04:31:00,6.1,-1.3,29.96,North,-999,0.0,0.0,71,0.00,,,0.00,pywws,2013-12-09 10:31:00,
2013-12-09 04:41:00,5.4,-2.0,29.96,North,-999,0.0,0.0,71,0.00,,,0.00,pywws,2013-12-09 10:41:00,
2013-12-09 04:51:00,5.0,-2.3,29.96,North,-999,0.0,0.0,71,0.00,,,0.00,pywws,2013-12-09 10:51:00,